Kolt, Denmark
Current Conditions -  °F | °C
As of 7:50 PM on Friday 21 Nov 2014 (Local Time) from EKAH Reporting Station
Rain Showers Rain Showers  
Wind Chill: 41°   Ceiling: 4500
Heat Index: 41°   Visibility: 6mi
Dew Point: 37°   Wind: 1mph
Humidity: 87%   Direction: 310°NW
Pressure: 30.3"   Gusts: NA
Location:  56.11°N, 10.07°E
Report Text: EKAH 211850Z AUTO 31001KT 9999NDV -SHRA FEW012/// OVC045///05/03 Q1026
Loading
Personal Weather Stations






























Interactive Weather Map New forecast layout! Learn more

10-Day Weather Forecast

Advertisements
Track Severe Weather on mobile